sensor_id;sensor_type;location;lat;lon;timestamp;P1;durP1;ratioP1;P2;durP2;ratioP2
5319;SDS011;2682;49.800;9.990;2022-08-19T00:00:47;25.40;;;24.00;;
5319;SDS011;2682;49.800;9.990;2022-08-19T00:03:15;26.40;;;22.60;;
5319;SDS011;2682;49.800;9.990;2022-08-19T00:05:41;31.60;;;24.60;;
5319;SDS011;2682;49.800;9.990;2022-08-19T00:08:08;28.00;;;23.80;;
5319;SDS011;2682;49.800;9.990;2022-08-19T00:10:34;25.80;;;24.00;;
5319;SDS011;2682;49.800;9.990;2022-08-19T00:13:01;27.20;;;25.60;;
5319;SDS011;2682;49.800;9.990;2022-08-19T00:15:29;28.00;;;24.00;;
5319;SDS011;2682;49.800;9.990;2022-08-19T00:17:57;26.80;;;24.00;;
5319;SDS011;2682;49.800;9.990;2022-08-19T00:20:23;26.20;;;23.40;;
5319;SDS011;2682;49.800;9.990;2022-08-19T00:22:50;24.80;;;22.00;;
5319;SDS011;2682;49.800;9.990;2022-08-19T00:25:17;30.80;;;25.80;;
5319;SDS011;2682;49.800;9.990;2022-08-19T00:27:43;26.40;;;24.40;;
5319;SDS011;2682;49.800;9.990;2022-08-19T00:30:10;27.60;;;25.80;;
5319;SDS011;2682;49.800;9.990;2022-08-19T00:32:37;27.80;;;25.60;;
5319;SDS011;2682;49.800;9.990;2022-08-19T00:35:06;26.60;;;24.40;;
5319;SDS011;2682;49.800;9.990;2022-08-19T00:37:33;28.20;;;26.20;;
5319;SDS011;2682;49.800;9.990;2022-08-19T00:40:00;29.40;;;25.80;;
5319;SDS011;2682;49.800;9.990;2022-08-19T00:42:30;25.80;;;24.60;;
5319;SDS011;2682;49.800;9.990;2022-08-19T00:44:57;24.20;;;23.00;;
5319;SDS011;2682;49.800;9.990;2022-08-19T00:47:24;32.40;;;27.00;;
5319;SDS011;2682;49.800;9.990;2022-08-19T00:49:51;28.40;;;25.00;;
5319;SDS011;2682;49.800;9.990;2022-08-19T00:52:20;27.80;;;22.80;;
5319;SDS011;2682;49.800;9.990;2022-08-19T00:54:49;28.80;;;26.80;;
5319;SDS011;2682;49.800;9.990;2022-08-19T00:57:17;30.00;;;28.00;;
5319;SDS011;2682;49.800;9.990;2022-08-19T00:59:46;27.40;;;25.20;;
5319;SDS011;2682;49.800;9.990;2022-08-19T01:02:14;23.80;;;22.00;;
5319;SDS011;2682;49.800;9.990;2022-08-19T01:04:40;27.00;;;25.80;;
5319;SDS011;2682;49.800;9.990;2022-08-19T01:07:07;23.40;;;22.00;;
5319;SDS011;2682;49.800;9.990;2022-08-19T01:09:35;25.80;;;23.40;;
5319;SDS011;2682;49.800;9.990;2022-08-19T01:12:02;25.80;;;25.40;;
5319;SDS011;2682;49.800;9.990;2022-08-19T01:14:28;25.00;;;23.60;;
5319;SDS011;2682;49.800;9.990;2022-08-19T01:16:55;30.00;;;25.00;;
5319;SDS011;2682;49.800;9.990;2022-08-19T01:19:23;28.20;;;24.60;;
5319;SDS011;2682;49.800;9.990;2022-08-19T01:21:53;26.00;;;25.00;;
5319;SDS011;2682;49.800;9.990;2022-08-19T01:24:22;25.80;;;24.80;;
5319;SDS011;2682;49.800;9.990;2022-08-19T01:26:49;24.00;;;21.60;;
5319;SDS011;2682;49.800;9.990;2022-08-19T01:29:16;28.60;;;24.60;;
5319;SDS011;2682;49.800;9.990;2022-08-19T01:31:42;27.20;;;25.00;;
5319;SDS011;2682;49.800;9.990;2022-08-19T01:34:09;32.00;;;29.60;;
5319;SDS011;2682;49.800;9.990;2022-08-19T01:36:37;24.40;;;21.60;;
5319;SDS011;2682;49.800;9.990;2022-08-19T01:39:06;28.00;;;26.20;;
5319;SDS011;2682;49.800;9.990;2022-08-19T01:41:34;29.00;;;26.00;;
5319;SDS011;2682;49.800;9.990;2022-08-19T01:44:01;25.40;;;23.60;;
5319;SDS011;2682;49.800;9.990;2022-08-19T01:46:29;25.80;;;24.40;;
5319;SDS011;2682;49.800;9.990;2022-08-19T01:48:55;26.60;;;25.00;;
5319;SDS011;2682;49.800;9.990;2022-08-19T01:51:22;26.80;;;26.40;;
5319;SDS011;2682;49.800;9.990;2022-08-19T01:53:49;22.80;;;21.40;;
5319;SDS011;2682;49.800;9.990;2022-08-19T01:56:16;25.00;;;22.00;;
5319;SDS011;2682;49.800;9.990;2022-08-19T01:58:44;25.80;;;21.80;;
5319;SDS011;2682;49.800;9.990;2022-08-19T02:01:12;28.60;;;27.60;;
5319;SDS011;2682;49.800;9.990;2022-08-19T02:03:39;24.20;;;21.60;;
5319;SDS011;2682;49.800;9.990;2022-08-19T02:06:06;23.60;;;22.80;;
5319;SDS011;2682;49.800;9.990;2022-08-19T02:08:33;24.60;;;20.20;;
5319;SDS011;2682;49.800;9.990;2022-08-19T02:11:01;25.00;;;24.00;;
5319;SDS011;2682;49.800;9.990;2022-08-19T02:13:27;24.00;;;22.20;;
5319;SDS011;2682;49.800;9.990;2022-08-19T02:15:55;23.20;;;22.00;;
5319;SDS011;2682;49.800;9.990;2022-08-19T02:18:22;27.60;;;25.20;;
5319;SDS011;2682;49.800;9.990;2022-08-19T02:20:48;24.60;;;22.80;;
5319;SDS011;2682;49.800;9.990;2022-08-19T02:23:15;30.00;;;24.40;;
5319;SDS011;2682;49.800;9.990;2022-08-19T02:25:42;26.20;;;23.40;;
5319;SDS011;2682;49.800;9.990;2022-08-19T02:28:09;28.00;;;24.60;;
5319;SDS011;2682;49.800;9.990;2022-08-19T02:30:36;25.40;;;23.00;;
5319;SDS011;2682;49.800;9.990;2022-08-19T02:33:04;23.20;;;23.00;;
5319;SDS011;2682;49.800;9.990;2022-08-19T02:35:31;26.80;;;23.60;;
5319;SDS011;2682;49.800;9.990;2022-08-19T02:37:57;23.00;;;20.00;;
5319;SDS011;2682;49.800;9.990;2022-08-19T02:40:47;27.40;;;24.00;;
5319;SDS011;2682;49.800;9.990;2022-08-19T02:43:14;25.20;;;23.20;;
5319;SDS011;2682;49.800;9.990;2022-08-19T02:45:41;24.00;;;21.80;;
5319;SDS011;2682;49.800;9.990;2022-08-19T02:48:08;23.00;;;21.40;;
5319;SDS011;2682;49.800;9.990;2022-08-19T02:50:36;26.80;;;24.60;;
5319;SDS011;2682;49.800;9.990;2022-08-19T02:53:03;25.40;;;24.20;;
5319;SDS011;2682;49.800;9.990;2022-08-19T02:55:29;27.80;;;24.20;;
5319;SDS011;2682;49.800;9.990;2022-08-19T02:57:56;30.80;;;27.00;;
5319;SDS011;2682;49.800;9.990;2022-08-19T03:00:22;29.80;;;26.80;;
5319;SDS011;2682;49.800;9.990;2022-08-19T03:02:49;25.00;;;24.60;;
5319;SDS011;2682;49.800;9.990;2022-08-19T03:05:17;23.60;;;23.00;;
5319;SDS011;2682;49.800;9.990;2022-08-19T03:07:44;25.00;;;23.40;;
5319;SDS011;2682;49.800;9.990;2022-08-19T03:10:11;24.40;;;22.60;;
5319;SDS011;2682;49.800;9.990;2022-08-19T03:12:38;21.20;;;21.20;;
5319;SDS011;2682;49.800;9.990;2022-08-19T03:15:06;25.60;;;21.80;;
5319;SDS011;2682;49.800;9.990;2022-08-19T03:17:33;23.60;;;21.80;;
5319;SDS011;2682;49.800;9.990;2022-08-19T03:19:59;23.80;;;22.80;;
5319;SDS011;2682;49.800;9.990;2022-08-19T03:22:27;25.20;;;23.00;;
5319;SDS011;2682;49.800;9.990;2022-08-19T03:24:55;25.60;;;25.40;;
5319;SDS011;2682;49.800;9.990;2022-08-19T03:27:21;25.80;;;24.00;;
5319;SDS011;2682;49.800;9.990;2022-08-19T03:29:48;23.60;;;22.40;;
5319;SDS011;2682;49.800;9.990;2022-08-19T03:32:14;23.00;;;21.60;;
5319;SDS011;2682;49.800;9.990;2022-08-19T03:34:41;22.60;;;21.80;;
5319;SDS011;2682;49.800;9.990;2022-08-19T03:37:08;24.20;;;21.60;;
5319;SDS011;2682;49.800;9.990;2022-08-19T03:39:37;26.60;;;23.80;;
5319;SDS011;2682;49.800;9.990;2022-08-19T03:42:04;23.40;;;22.00;;
5319;SDS011;2682;49.800;9.990;2022-08-19T03:44:30;23.20;;;20.80;;
5319;SDS011;2682;49.800;9.990;2022-08-19T03:46:58;22.20;;;21.40;;
5319;SDS011;2682;49.800;9.990;2022-08-19T03:49:26;22.40;;;21.80;;
5319;SDS011;2682;49.800;9.990;2022-08-19T03:51:53;24.80;;;22.00;;
5319;SDS011;2682;49.800;9.990;2022-08-19T03:54:21;26.20;;;23.20;;
5319;SDS011;2682;49.800;9.990;2022-08-19T03:56:50;27.40;;;25.60;;
5319;SDS011;2682;49.800;9.990;2022-08-19T03:59:18;22.60;;;21.00;;
5319;SDS011;2682;49.800;9.990;2022-08-19T04:01:45;25.40;;;22.80;;
5319;SDS011;2682;49.800;9.990;2022-08-19T04:04:11;28.00;;;26.00;;
5319;SDS011;2682;49.800;9.990;2022-08-19T04:06:38;26.60;;;25.40;;
5319;SDS011;2682;49.800;9.990;2022-08-19T04:09:06;21.60;;;20.80;;
5319;SDS011;2682;49.800;9.990;2022-08-19T04:11:34;26.20;;;23.60;;
5319;SDS011;2682;49.800;9.990;2022-08-19T04:14:02;24.40;;;23.00;;
5319;SDS011;2682;49.800;9.990;2022-08-19T04:16:29;25.40;;;22.60;;
5319;SDS011;2682;49.800;9.990;2022-08-19T04:18:56;25.80;;;20.80;;
5319;SDS011;2682;49.800;9.990;2022-08-19T04:21:23;25.60;;;24.20;;
5319;SDS011;2682;49.800;9.990;2022-08-19T04:23:50;24.00;;;22.40;;
5319;SDS011;2682;49.800;9.990;2022-08-19T04:26:18;25.60;;;22.60;;
5319;SDS011;2682;49.800;9.990;2022-08-19T04:28:45;25.00;;;22.20;;
5319;SDS011;2682;49.800;9.990;2022-08-19T04:31:14;27.00;;;25.20;;
5319;SDS011;2682;49.800;9.990;2022-08-19T04:33:41;24.20;;;23.00;;
5319;SDS011;2682;49.800;9.990;2022-08-19T04:36:10;28.00;;;27.60;;
5319;SDS011;2682;49.800;9.990;2022-08-19T04:38:42;27.80;;;23.40;;
5319;SDS011;2682;49.800;9.990;2022-08-19T04:41:08;23.80;;;20.60;;
5319;SDS011;2682;49.800;9.990;2022-08-19T04:43:52;28.40;;;25.80;;
5319;SDS011;2682;49.800;9.990;2022-08-19T04:46:20;26.00;;;23.20;;
5319;SDS011;2682;49.800;9.990;2022-08-19T04:48:47;24.80;;;23.00;;
5319;SDS011;2682;49.800;9.990;2022-08-19T04:51:13;23.40;;;21.20;;
5319;SDS011;2682;49.800;9.990;2022-08-19T04:53:41;25.20;;;24.40;;
5319;SDS011;2682;49.800;9.990;2022-08-19T04:56:09;25.80;;;23.00;;
5319;SDS011;2682;49.800;9.990;2022-08-19T04:58:37;22.60;;;20.40;;
5319;SDS011;2682;49.800;9.990;2022-08-19T05:01:04;24.80;;;22.00;;
5319;SDS011;2682;49.800;9.990;2022-08-19T05:03:32;24.20;;;21.00;;
5319;SDS011;2682;49.800;9.990;2022-08-19T05:05:59;24.40;;;22.40;;
5319;SDS011;2682;49.800;9.990;2022-08-19T05:08:30;27.40;;;25.80;;
5319;SDS011;2682;49.800;9.990;2022-08-19T05:10:57;25.00;;;22.40;;
5319;SDS011;2682;49.800;9.990;2022-08-19T05:13:23;25.00;;;23.00;;
5319;SDS011;2682;49.800;9.990;2022-08-19T05:15:53;23.20;;;19.60;;
5319;SDS011;2682;49.800;9.990;2022-08-19T05:18:20;22.60;;;20.40;;
5319;SDS011;2682;49.800;9.990;2022-08-19T05:21:06;22.60;;;21.40;;
5319;SDS011;2682;49.800;9.990;2022-08-19T05:23:50;25.60;;;23.00;;
5319;SDS011;2682;49.800;9.990;2022-08-19T05:26:17;23.00;;;21.60;;
5319;SDS011;2682;49.800;9.990;2022-08-19T05:28:43;24.20;;;21.80;;
5319;SDS011;2682;49.800;9.990;2022-08-19T05:31:10;23.00;;;19.00;;
5319;SDS011;2682;49.800;9.990;2022-08-19T05:33:37;24.60;;;22.40;;
5319;SDS011;2682;49.800;9.990;2022-08-19T05:36:05;22.60;;;19.00;;
5319;SDS011;2682;49.800;9.990;2022-08-19T05:38:33;21.00;;;20.40;;
5319;SDS011;2682;49.800;9.990;2022-08-19T05:41:00;24.60;;;21.60;;
5319;SDS011;2682;49.800;9.990;2022-08-19T05:43:27;21.80;;;20.00;;
5319;SDS011;2682;49.800;9.990;2022-08-19T05:45:54;21.80;;;21.20;;
5319;SDS011;2682;49.800;9.990;2022-08-19T05:48:20;19.80;;;17.20;;
5319;SDS011;2682;49.800;9.990;2022-08-19T05:50:47;22.00;;;20.00;;
5319;SDS011;2682;49.800;9.990;2022-08-19T05:53:15;23.40;;;19.80;;
5319;SDS011;2682;49.800;9.990;2022-08-19T05:55:43;20.60;;;19.80;;
5319;SDS011;2682;49.800;9.990;2022-08-19T05:58:09;21.40;;;18.80;;
5319;SDS011;2682;49.800;9.990;2022-08-19T06:00:36;21.00;;;17.00;;
5319;SDS011;2682;49.800;9.990;2022-08-19T06:03:03;21.40;;;19.00;;
5319;SDS011;2682;49.800;9.990;2022-08-19T06:05:29;22.40;;;20.80;;
5319;SDS011;2682;49.800;9.990;2022-08-19T06:07:57;23.40;;;19.80;;
5319;SDS011;2682;49.800;9.990;2022-08-19T06:10:24;20.20;;;19.80;;
5319;SDS011;2682;49.800;9.990;2022-08-19T06:12:57;18.60;;;17.60;;
5319;SDS011;2682;49.800;9.990;2022-08-19T06:15:24;22.00;;;20.40;;
5319;SDS011;2682;49.800;9.990;2022-08-19T06:17:53;22.00;;;21.00;;
5319;SDS011;2682;49.800;9.990;2022-08-19T06:20:19;19.40;;;18.40;;
5319;SDS011;2682;49.800;9.990;2022-08-19T06:22:47;20.80;;;20.40;;
5319;SDS011;2682;49.800;9.990;2022-08-19T06:25:14;19.20;;;17.20;;
5319;SDS011;2682;49.800;9.990;2022-08-19T06:27:42;19.20;;;18.80;;
5319;SDS011;2682;49.800;9.990;2022-08-19T06:30:10;21.00;;;20.20;;
5319;SDS011;2682;49.800;9.990;2022-08-19T06:32:37;19.80;;;18.40;;
5319;SDS011;2682;49.800;9.990;2022-08-19T06:35:04;19.60;;;18.60;;
5319;SDS011;2682;49.800;9.990;2022-08-19T06:37:31;19.40;;;17.20;;
5319;SDS011;2682;49.800;9.990;2022-08-19T06:39:57;21.20;;;19.40;;
5319;SDS011;2682;49.800;9.990;2022-08-19T06:42:24;22.00;;;20.00;;
5319;SDS011;2682;49.800;9.990;2022-08-19T06:44:50;21.00;;;19.00;;
5319;SDS011;2682;49.800;9.990;2022-08-19T06:47:20;19.60;;;17.60;;
5319;SDS011;2682;49.800;9.990;2022-08-19T06:49:47;20.60;;;19.00;;
5319;SDS011;2682;49.800;9.990;2022-08-19T06:52:13;23.60;;;21.60;;
5319;SDS011;2682;49.800;9.990;2022-08-19T06:54:41;18.80;;;17.20;;
5319;SDS011;2682;49.800;9.990;2022-08-19T06:57:10;18.20;;;17.20;;
5319;SDS011;2682;49.800;9.990;2022-08-19T06:59:40;18.80;;;18.80;;
5319;SDS011;2682;49.800;9.990;2022-08-19T07:02:06;20.20;;;18.60;;
5319;SDS011;2682;49.800;9.990;2022-08-19T07:04:35;21.20;;;19.60;;
5319;SDS011;2682;49.800;9.990;2022-08-19T07:07:04;18.40;;;17.40;;
5319;SDS011;2682;49.800;9.990;2022-08-19T07:09:33;18.20;;;16.80;;
5319;SDS011;2682;49.800;9.990;2022-08-19T07:12:02;22.00;;;19.60;;
5319;SDS011;2682;49.800;9.990;2022-08-19T07:14:29;16.00;;;16.00;;
5319;SDS011;2682;49.800;9.990;2022-08-19T07:16:56;20.40;;;18.80;;
5319;SDS011;2682;49.800;9.990;2022-08-19T07:19:23;18.00;;;17.80;;
5319;SDS011;2682;49.800;9.990;2022-08-19T07:21:53;18.40;;;17.00;;
5319;SDS011;2682;49.800;9.990;2022-08-19T07:24:20;17.60;;;16.00;;
5319;SDS011;2682;49.800;9.990;2022-08-19T07:26:49;22.40;;;21.40;;
5319;SDS011;2682;49.800;9.990;2022-08-19T07:29:16;20.20;;;18.40;;
5319;SDS011;2682;49.800;9.990;2022-08-19T07:31:43;19.40;;;18.00;;
5319;SDS011;2682;49.800;9.990;2022-08-19T07:34:10;21.40;;;20.00;;
5319;SDS011;2682;49.800;9.990;2022-08-19T07:36:39;18.80;;;18.00;;
5319;SDS011;2682;49.800;9.990;2022-08-19T07:39:09;19.80;;;18.00;;
5319;SDS011;2682;49.800;9.990;2022-08-19T07:41:39;19.20;;;18.20;;
5319;SDS011;2682;49.800;9.990;2022-08-19T07:44:06;21.00;;;19.00;;
5319;SDS011;2682;49.800;9.990;2022-08-19T07:46:33;24.60;;;21.20;;
5319;SDS011;2682;49.800;9.990;2022-08-19T07:49:00;19.60;;;18.40;;
5319;SDS011;2682;49.800;9.990;2022-08-19T07:51:30;20.60;;;19.00;;
5319;SDS011;2682;49.800;9.990;2022-08-19T07:53:57;19.60;;;16.40;;
5319;SDS011;2682;49.800;9.990;2022-08-19T07:56:25;20.00;;;17.40;;
5319;SDS011;2682;49.800;9.990;2022-08-19T07:58:51;18.20;;;17.60;;
5319;SDS011;2682;49.800;9.990;2022-08-19T08:01:19;19.20;;;18.60;;
5319;SDS011;2682;49.800;9.990;2022-08-19T08:03:46;17.20;;;16.20;;
5319;SDS011;2682;49.800;9.990;2022-08-19T08:06:30;19.00;;;18.40;;
5319;SDS011;2682;49.800;9.990;2022-08-19T08:09:14;19.20;;;19.00;;
5319;SDS011;2682;49.800;9.990;2022-08-19T08:11:49;19.00;;;17.60;;
5319;SDS011;2682;49.800;9.990;2022-08-19T08:14:17;18.00;;;17.20;;
5319;SDS011;2682;49.800;9.990;2022-08-19T08:16:44;20.60;;;18.60;;
5319;SDS011;2682;49.800;9.990;2022-08-19T08:19:10;20.80;;;19.80;;
5319;SDS011;2682;49.800;9.990;2022-08-19T08:21:39;20.40;;;19.00;;
5319;SDS011;2682;49.800;9.990;2022-08-19T08:24:06;17.80;;;17.40;;
5319;SDS011;2682;49.800;9.990;2022-08-19T08:26:32;18.80;;;17.20;;
5319;SDS011;2682;49.800;9.990;2022-08-19T08:29:00;21.80;;;19.80;;
5319;SDS011;2682;49.800;9.990;2022-08-19T08:31:27;20.00;;;18.20;;
5319;SDS011;2682;49.800;9.990;2022-08-19T08:33:53;16.00;;;14.80;;
5319;SDS011;2682;49.800;9.990;2022-08-19T08:36:20;18.00;;;17.00;;
5319;SDS011;2682;49.800;9.990;2022-08-19T08:38:47;17.20;;;17.20;;
5319;SDS011;2682;49.800;9.990;2022-08-19T08:41:17;17.80;;;16.80;;
5319;SDS011;2682;49.800;9.990;2022-08-19T08:43:46;17.00;;;16.60;;
5319;SDS011;2682;49.800;9.990;2022-08-19T08:46:15;17.60;;;16.80;;
5319;SDS011;2682;49.800;9.990;2022-08-19T08:48:46;21.80;;;21.60;;
5319;SDS011;2682;49.800;9.990;2022-08-19T08:51:17;19.00;;;17.60;;
5319;SDS011;2682;49.800;9.990;2022-08-19T08:53:46;20.20;;;18.80;;
5319;SDS011;2682;49.800;9.990;2022-08-19T08:56:13;17.80;;;16.40;;
5319;SDS011;2682;49.800;9.990;2022-08-19T08:58:42;20.00;;;19.00;;
5319;SDS011;2682;49.800;9.990;2022-08-19T09:01:11;21.00;;;18.80;;
5319;SDS011;2682;49.800;9.990;2022-08-19T09:03:40;20.40;;;18.20;;
5319;SDS011;2682;49.800;9.990;2022-08-19T09:06:12;18.60;;;18.20;;
5319;SDS011;2682;49.800;9.990;2022-08-19T09:08:42;17.60;;;17.00;;
5319;SDS011;2682;49.800;9.990;2022-08-19T09:11:10;17.20;;;16.80;;
5319;SDS011;2682;49.800;9.990;2022-08-19T09:13:42;17.20;;;16.00;;
5319;SDS011;2682;49.800;9.990;2022-08-19T09:16:12;21.60;;;20.40;;
5319;SDS011;2682;49.800;9.990;2022-08-19T09:18:42;23.20;;;19.80;;
5319;SDS011;2682;49.800;9.990;2022-08-19T09:21:09;16.40;;;16.40;;
5319;SDS011;2682;49.800;9.990;2022-08-19T09:23:36;19.00;;;17.60;;
5319;SDS011;2682;49.800;9.990;2022-08-19T09:26:06;20.60;;;18.40;;
5319;SDS011;2682;49.800;9.990;2022-08-19T09:28:32;18.20;;;18.00;;
5319;SDS011;2682;49.800;9.990;2022-08-19T09:30:59;20.20;;;19.60;;
5319;SDS011;2682;49.800;9.990;2022-08-19T09:33:25;21.20;;;19.40;;
5319;SDS011;2682;49.800;9.990;2022-08-19T09:36:02;21.00;;;18.20;;
5319;SDS011;2682;49.800;9.990;2022-08-19T09:38:29;20.20;;;18.20;;
5319;SDS011;2682;49.800;9.990;2022-08-19T09:40:56;19.00;;;18.00;;
5319;SDS011;2682;49.800;9.990;2022-08-19T09:43:22;18.80;;;16.00;;
5319;SDS011;2682;49.800;9.990;2022-08-19T09:45:52;22.80;;;20.60;;
5319;SDS011;2682;49.800;9.990;2022-08-19T09:48:18;19.20;;;18.20;;
5319;SDS011;2682;49.800;9.990;2022-08-19T09:50:46;19.20;;;16.80;;
5319;SDS011;2682;49.800;9.990;2022-08-19T09:53:14;19.20;;;18.40;;
5319;SDS011;2682;49.800;9.990;2022-08-19T09:55:41;21.40;;;20.40;;
5319;SDS011;2682;49.800;9.990;2022-08-19T09:58:07;17.60;;;16.80;;
5319;SDS011;2682;49.800;9.990;2022-08-19T10:00:34;18.40;;;17.00;;
5319;SDS011;2682;49.800;9.990;2022-08-19T10:03:03;18.20;;;18.20;;
5319;SDS011;2682;49.800;9.990;2022-08-19T10:05:29;19.80;;;19.00;;
5319;SDS011;2682;49.800;9.990;2022-08-19T10:08:16;24.00;;;20.00;;
5319;SDS011;2682;49.800;9.990;2022-08-19T10:10:44;17.00;;;17.00;;
5319;SDS011;2682;49.800;9.990;2022-08-19T10:13:11;21.00;;;19.80;;
5319;SDS011;2682;49.800;9.990;2022-08-19T10:15:37;17.20;;;16.20;;
5319;SDS011;2682;49.800;9.990;2022-08-19T10:18:05;17.80;;;16.00;;
5319;SDS011;2682;49.800;9.990;2022-08-19T10:20:32;19.00;;;16.80;;
5319;SDS011;2682;49.800;9.990;2022-08-19T10:23:00;16.20;;;14.60;;
5319;SDS011;2682;49.800;9.990;2022-08-19T10:25:28;14.00;;;12.80;;
5319;SDS011;2682;49.800;9.990;2022-08-19T10:27:55;14.20;;;13.00;;
5319;SDS011;2682;49.800;9.990;2022-08-19T10:30:21;12.00;;;12.00;;
5319;SDS011;2682;49.800;9.990;2022-08-19T10:32:48;12.20;;;10.20;;
5319;SDS011;2682;49.800;9.990;2022-08-19T10:35:14;11.00;;;10.80;;
5319;SDS011;2682;49.800;9.990;2022-08-19T10:37:42;13.60;;;12.60;;
5319;SDS011;2682;49.800;9.990;2022-08-19T10:40:09;12.80;;;12.60;;
5319;SDS011;2682;49.800;9.990;2022-08-19T10:42:38;13.20;;;11.40;;
5319;SDS011;2682;49.800;9.990;2022-08-19T10:45:05;13.20;;;13.20;;
5319;SDS011;2682;49.800;9.990;2022-08-19T10:47:32;11.80;;;11.40;;
5319;SDS011;2682;49.800;9.990;2022-08-19T10:49:59;12.20;;;11.60;;
5319;SDS011;2682;49.800;9.990;2022-08-19T10:52:44;12.00;;;12.00;;
5319;SDS011;2682;49.800;9.990;2022-08-19T10:55:11;10.40;;;10.20;;
5319;SDS011;2682;49.800;9.990;2022-08-19T10:57:56;10.60;;;10.00;;
5319;SDS011;2682;49.800;9.990;2022-08-19T11:00:23;12.00;;;11.20;;
5319;SDS011;2682;49.800;9.990;2022-08-19T11:02:50;11.60;;;11.00;;
5319;SDS011;2682;49.800;9.990;2022-08-19T11:05:17;11.00;;;10.20;;
5319;SDS011;2682;49.800;9.990;2022-08-19T11:07:44;12.00;;;11.40;;
5319;SDS011;2682;49.800;9.990;2022-08-19T11:10:12;9.20;;;9.00;;
5319;SDS011;2682;49.800;9.990;2022-08-19T11:12:39;9.60;;;8.60;;
5319;SDS011;2682;49.800;9.990;2022-08-19T11:15:08;8.60;;;8.60;;
5319;SDS011;2682;49.800;9.990;2022-08-19T11:17:35;10.00;;;9.00;;
5319;SDS011;2682;49.800;9.990;2022-08-19T11:20:05;10.60;;;10.20;;
5319;SDS011;2682;49.800;9.990;2022-08-19T11:22:32;12.80;;;11.80;;
5319;SDS011;2682;49.800;9.990;2022-08-19T11:24:59;11.80;;;11.80;;
5319;SDS011;2682;49.800;9.990;2022-08-19T11:27:25;10.60;;;10.60;;
5319;SDS011;2682;49.800;9.990;2022-08-19T11:29:54;11.00;;;11.00;;
5319;SDS011;2682;49.800;9.990;2022-08-19T11:32:21;10.00;;;9.60;;
5319;SDS011;2682;49.800;9.990;2022-08-19T11:34:48;10.00;;;9.00;;
5319;SDS011;2682;49.800;9.990;2022-08-19T11:37:14;9.40;;;9.40;;
5319;SDS011;2682;49.800;9.990;2022-08-19T11:39:41;8.00;;;7.40;;
5319;SDS011;2682;49.800;9.990;2022-08-19T11:42:07;9.60;;;9.00;;
5319;SDS011;2682;49.800;9.990;2022-08-19T11:44:48;7.00;;;7.00;;
5319;SDS011;2682;49.800;9.990;2022-08-19T11:47:14;9.80;;;9.00;;
5319;SDS011;2682;49.800;9.990;2022-08-19T11:49:42;8.00;;;7.60;;
5319;SDS011;2682;49.800;9.990;2022-08-19T11:52:09;9.00;;;8.40;;
5319;SDS011;2682;49.800;9.990;2022-08-19T11:54:36;7.40;;;7.20;;
5319;SDS011;2682;49.800;9.990;2022-08-19T11:57:02;8.00;;;8.00;;
5319;SDS011;2682;49.800;9.990;2022-08-19T11:59:29;6.00;;;6.00;;
5319;SDS011;2682;49.800;9.990;2022-08-19T12:01:59;5.40;;;5.20;;
5319;SDS011;2682;49.800;9.990;2022-08-19T12:04:25;7.00;;;7.00;;
5319;SDS011;2682;49.800;9.990;2022-08-19T12:06:53;7.00;;;6.20;;
5319;SDS011;2682;49.800;9.990;2022-08-19T12:09:20;7.00;;;6.60;;
5319;SDS011;2682;49.800;9.990;2022-08-19T12:11:47;5.40;;;5.40;;
5319;SDS011;2682;49.800;9.990;2022-08-19T12:14:13;5.80;;;5.00;;
5319;SDS011;2682;49.800;9.990;2022-08-19T12:16:40;6.40;;;6.00;;
5319;SDS011;2682;49.800;9.990;2022-08-19T12:19:07;5.60;;;5.60;;
5319;SDS011;2682;49.800;9.990;2022-08-19T12:21:34;5.40;;;5.40;;
5319;SDS011;2682;49.800;9.990;2022-08-19T12:24:03;7.00;;;6.00;;
5319;SDS011;2682;49.800;9.990;2022-08-19T12:26:30;7.00;;;6.60;;
5319;SDS011;2682;49.800;9.990;2022-08-19T12:28:57;6.00;;;6.00;;
5319;SDS011;2682;49.800;9.990;2022-08-19T12:31:24;6.00;;;6.00;;
5319;SDS011;2682;49.800;9.990;2022-08-19T12:33:51;4.60;;;4.60;;
5319;SDS011;2682;49.800;9.990;2022-08-19T12:36:18;4.80;;;4.80;;
5319;SDS011;2682;49.800;9.990;2022-08-19T12:38:44;5.00;;;5.00;;
5319;SDS011;2682;49.800;9.990;2022-08-19T12:41:13;3.80;;;3.60;;
5319;SDS011;2682;49.800;9.990;2022-08-19T12:43:40;4.00;;;4.00;;
5319;SDS011;2682;49.800;9.990;2022-08-19T12:46:08;4.40;;;4.20;;
5319;SDS011;2682;49.800;9.990;2022-08-19T12:48:35;3.80;;;3.80;;
5319;SDS011;2682;49.800;9.990;2022-08-19T12:51:05;5.00;;;5.00;;
5319;SDS011;2682;49.800;9.990;2022-08-19T12:53:32;4.20;;;4.20;;
5319;SDS011;2682;49.800;9.990;2022-08-19T12:55:59;4.20;;;3.80;;
5319;SDS011;2682;49.800;9.990;2022-08-19T12:58:27;5.00;;;4.00;;
5319;SDS011;2682;49.800;9.990;2022-08-19T13:00:54;4.80;;;4.80;;
5319;SDS011;2682;49.800;9.990;2022-08-19T13:03:21;4.20;;;4.20;;
5319;SDS011;2682;49.800;9.990;2022-08-19T13:05:52;4.00;;;4.00;;
5319;SDS011;2682;49.800;9.990;2022-08-19T13:08:19;3.20;;;3.20;;
5319;SDS011;2682;49.800;9.990;2022-08-19T13:10:45;4.00;;;4.00;;
5319;SDS011;2682;49.800;9.990;2022-08-19T13:13:12;3.60;;;3.40;;
5319;SDS011;2682;49.800;9.990;2022-08-19T13:15:40;4.60;;;4.60;;
5319;SDS011;2682;49.800;9.990;2022-08-19T13:18:08;6.20;;;6.20;;
5319;SDS011;2682;49.800;9.990;2022-08-19T13:20:35;4.80;;;4.80;;
5319;SDS011;2682;49.800;9.990;2022-08-19T13:23:03;5.00;;;5.00;;
5319;SDS011;2682;49.800;9.990;2022-08-19T13:25:30;6.80;;;6.40;;
5319;SDS011;2682;49.800;9.990;2022-08-19T13:27:57;5.40;;;4.80;;
5319;SDS011;2682;49.800;9.990;2022-08-19T13:30:23;6.80;;;5.80;;
5319;SDS011;2682;49.800;9.990;2022-08-19T13:33:09;5.00;;;4.00;;
5319;SDS011;2682;49.800;9.990;2022-08-19T13:35:40;5.00;;;4.80;;
5319;SDS011;2682;49.800;9.990;2022-08-19T13:38:07;5.00;;;4.60;;
5319;SDS011;2682;49.800;9.990;2022-08-19T13:40:34;3.00;;;3.00;;
5319;SDS011;2682;49.800;9.990;2022-08-19T13:43:01;3.00;;;3.00;;
5319;SDS011;2682;49.800;9.990;2022-08-19T13:45:29;3.60;;;3.00;;
5319;SDS011;2682;49.800;9.990;2022-08-19T13:47:57;3.40;;;3.20;;
5319;SDS011;2682;49.800;9.990;2022-08-19T13:50:27;5.00;;;4.00;;
5319;SDS011;2682;49.800;9.990;2022-08-19T13:52:53;4.00;;;4.00;;
5319;SDS011;2682;49.800;9.990;2022-08-19T13:55:20;4.40;;;4.20;;
5319;SDS011;2682;49.800;9.990;2022-08-19T13:57:49;3.60;;;3.60;;
5319;SDS011;2682;49.800;9.990;2022-08-19T14:00:17;3.00;;;3.00;;
5319;SDS011;2682;49.800;9.990;2022-08-19T14:02:44;3.00;;;2.80;;
5319;SDS011;2682;49.800;9.990;2022-08-19T14:05:11;2.20;;;2.20;;
5319;SDS011;2682;49.800;9.990;2022-08-19T14:07:40;3.00;;;3.00;;
5319;SDS011;2682;49.800;9.990;2022-08-19T14:10:07;3.80;;;3.00;;
5319;SDS011;2682;49.800;9.990;2022-08-19T14:12:34;3.00;;;3.00;;
5319;SDS011;2682;49.800;9.990;2022-08-19T14:15:01;4.00;;;3.60;;
5319;SDS011;2682;49.800;9.990;2022-08-19T14:17:28;3.00;;;3.00;;
5319;SDS011;2682;49.800;9.990;2022-08-19T14:19:56;3.00;;;3.00;;
5319;SDS011;2682;49.800;9.990;2022-08-19T14:22:22;3.00;;;3.00;;
5319;SDS011;2682;49.800;9.990;2022-08-19T14:24:50;2.60;;;2.00;;
5319;SDS011;2682;49.800;9.990;2022-08-19T14:27:17;3.80;;;3.80;;
5319;SDS011;2682;49.800;9.990;2022-08-19T14:29:43;4.20;;;3.80;;
5319;SDS011;2682;49.800;9.990;2022-08-19T14:32:10;3.40;;;3.20;;
5319;SDS011;2682;49.800;9.990;2022-08-19T14:34:37;3.00;;;3.00;;
5319;SDS011;2682;49.800;9.990;2022-08-19T14:37:03;3.20;;;3.00;;
5319;SDS011;2682;49.800;9.990;2022-08-19T14:39:31;4.60;;;3.60;;
5319;SDS011;2682;49.800;9.990;2022-08-19T14:41:59;3.00;;;3.00;;
5319;SDS011;2682;49.800;9.990;2022-08-19T14:44:26;5.00;;;4.00;;
5319;SDS011;2682;49.800;9.990;2022-08-19T14:46:53;4.60;;;4.00;;
5319;SDS011;2682;49.800;9.990;2022-08-19T14:49:19;3.00;;;2.00;;
5319;SDS011;2682;49.800;9.990;2022-08-19T14:51:46;3.00;;;2.80;;
5319;SDS011;2682;49.800;9.990;2022-08-19T14:54:12;3.80;;;3.80;;
5319;SDS011;2682;49.800;9.990;2022-08-19T14:56:39;3.80;;;3.80;;
5319;SDS011;2682;49.800;9.990;2022-08-19T14:59:07;4.00;;;3.40;;